createdAt,value
2023-05-22T00:00:55.208Z,12.29
2023-05-22T00:05:58.995Z,12.24
2023-05-22T00:11:00.680Z,12.25
2023-05-22T00:16:03.116Z,12.26
2023-05-22T00:21:04.940Z,12.17
2023-05-22T00:26:06.471Z,11.99
2023-05-22T00:31:08.223Z,11.81
2023-05-22T00:36:09.918Z,11.60
2023-05-22T00:41:11.477Z,11.42
2023-05-22T00:46:13.095Z,11.24
2023-05-22T00:51:15.468Z,11.11
2023-05-22T00:56:17.778Z,11.00
2023-05-22T01:01:19.871Z,10.89
2023-05-22T01:06:24.383Z,10.77
2023-05-22T01:11:29.894Z,10.71
2023-05-22T01:16:46.897Z,10.65
2023-05-22T01:22:25.548Z,10.55
2023-05-22T01:27:58.429Z,10.45
2023-05-22T01:33:00.955Z,10.44
2023-05-22T01:38:03.689Z,10.35
2023-05-22T01:43:05.427Z,10.23
2023-05-22T01:48:07.514Z,10.17
2023-05-22T01:53:15.516Z,10.14
2023-05-22T01:58:29.332Z,10.03
2023-05-22T02:03:33.654Z,9.91
2023-05-22T02:08:40.487Z,9.87
2023-05-22T02:13:43.008Z,9.84
2023-05-22T02:18:45.509Z,9.81
2023-05-22T02:23:47.399Z,9.79
2023-05-22T02:28:48.938Z,9.74
2023-05-22T02:33:50.509Z,9.72
2023-05-22T02:38:52.769Z,9.67
2023-05-22T02:43:54.361Z,9.64
2023-05-22T02:48:55.939Z,9.70
2023-05-22T02:53:57.484Z,9.76
2023-05-22T02:58:59.270Z,9.93
2023-05-22T03:04:00.808Z,10.40
2023-05-22T03:09:04.228Z,11.80
2023-05-22T03:14:05.780Z,13.03
2023-05-22T03:19:10.606Z,14.06
2023-05-22T03:24:14.782Z,15.35
2023-05-22T03:29:16.395Z,16.82
2023-05-22T03:34:18.004Z,18.17
2023-05-22T03:39:19.663Z,18.52
2023-05-22T03:44:21.258Z,17.28
2023-05-22T03:49:22.845Z,16.07
2023-05-22T03:54:24.538Z,15.03
2023-05-22T03:59:26.119Z,14.42
2023-05-22T04:04:30.490Z,14.09
2023-05-22T04:09:32.385Z,13.83
2023-05-22T04:14:34.008Z,13.69
2023-05-22T04:19:35.558Z,13.64
2023-05-22T04:24:39.872Z,13.66
2023-05-22T04:29:41.692Z,13.69
2023-05-22T04:34:44.931Z,13.77
2023-05-22T04:39:47.112Z,13.83
2023-05-22T04:44:48.665Z,13.96
2023-05-22T04:49:51.477Z,14.14
2023-05-22T04:54:53.082Z,14.29
2023-05-22T04:59:54.694Z,14.43
2023-05-22T05:04:56.245Z,14.58
2023-05-22T05:09:57.754Z,14.68
2023-05-22T05:14:59.349Z,14.82
2023-05-22T05:20:01.002Z,14.96
2023-05-22T05:25:03.996Z,15.21
2023-05-22T05:30:06.825Z,15.45
2023-05-22T05:35:08.627Z,15.64
2023-05-22T05:40:13.400Z,15.95
2023-05-22T05:45:15.135Z,16.28
2023-05-22T05:50:17.283Z,16.55
2023-05-22T05:55:18.818Z,16.75
2023-05-22T06:00:22.829Z,16.97
2023-05-22T06:05:24.470Z,17.11
2023-05-22T06:10:26.435Z,17.27
2023-05-22T06:15:27.963Z,17.37
2023-05-22T06:20:29.663Z,17.61
2023-05-22T06:25:31.312Z,17.85
2023-05-22T06:30:40.076Z,18.01
2023-05-22T06:35:42.376Z,17.94
2023-05-22T06:40:43.964Z,17.90
2023-05-22T06:45:45.569Z,17.87
2023-05-22T06:50:47.752Z,17.83
2023-05-22T06:55:49.308Z,17.84
2023-05-22T07:00:52.405Z,17.84
2023-05-22T07:05:56.840Z,17.81
2023-05-22T07:10:58.794Z,17.82
2023-05-22T07:16:00.538Z,17.88
2023-05-22T07:21:03.039Z,17.96
2023-05-22T07:26:04.751Z,18.06
2023-05-22T07:31:06.758Z,18.14
2023-05-22T07:36:08.480Z,18.22
2023-05-22T07:41:09.990Z,18.32
2023-05-22T07:46:14.469Z,18.43
2023-05-22T07:51:16.190Z,18.53
2023-05-22T07:56:18.075Z,18.57
2023-05-22T08:01:19.805Z,18.64
2023-05-22T08:06:23.778Z,18.75
2023-05-22T08:11:28.840Z,18.89
2023-05-22T08:16:33.356Z,19.01
2023-05-22T08:21:35.948Z,19.19
2023-05-22T08:26:41.347Z,19.44
2023-05-22T08:31:42.917Z,19.73
2023-05-22T08:36:44.560Z,20.06
2023-05-22T08:41:47.453Z,20.27
2023-05-22T08:46:51.796Z,20.43
2023-05-22T08:52:00.220Z,20.57
2023-05-22T08:57:02.369Z,20.69
2023-05-22T09:02:06.963Z,20.88
2023-05-22T09:07:09.252Z,21.18
2023-05-22T09:12:11.208Z,21.54
2023-05-22T09:17:15.614Z,21.69
2023-05-22T09:22:17.513Z,21.72
2023-05-22T09:27:23.533Z,21.79
2023-05-22T09:32:25.489Z,22.02
2023-05-22T09:37:28.808Z,22.24
2023-05-22T09:42:30.963Z,22.41
2023-05-22T09:47:34.234Z,22.53
2023-05-22T09:52:37.613Z,22.49
2023-05-22T09:57:43.029Z,22.55
2023-05-22T10:02:51.999Z,22.73
2023-05-22T10:07:57.181Z,23.02
2023-05-22T10:13:06.491Z,23.21
2023-05-22T10:18:08.665Z,23.38
2023-05-22T10:23:11.353Z,23.37
2023-05-22T10:28:23.547Z,23.47
2023-05-22T10:33:34.069Z,23.49
2023-05-22T10:38:59.869Z,23.79
2023-05-22T10:44:04.211Z,23.88
2023-05-22T10:49:06.021Z,23.96
2023-05-22T10:54:07.687Z,24.21
2023-05-22T10:59:09.244Z,24.21
2023-05-22T11:04:12.274Z,24.19
2023-05-22T11:09:17.268Z,24.26
2023-05-22T11:14:20.736Z,24.33
2023-05-22T11:19:23.824Z,24.35
2023-05-22T11:24:25.908Z,24.09
2023-05-22T11:29:29.320Z,24.20
2023-05-22T11:34:34.092Z,24.10
2023-05-22T11:39:35.626Z,23.92
2023-05-22T11:44:39.562Z,23.70
2023-05-22T11:49:44.787Z,23.48
2023-05-22T11:54:47.515Z,23.48
2023-05-22T11:59:49.684Z,23.67
2023-05-22T12:04:58.541Z,23.79
2023-05-22T12:10:01.358Z,23.92
2023-05-22T12:15:06.307Z,24.00
2023-05-22T12:20:13.105Z,24.21
2023-05-22T12:25:17.557Z,24.34
2023-05-22T12:30:26.707Z,24.32
2023-05-22T12:35:29.043Z,23.99
2023-05-22T12:40:30.566Z,23.78
2023-05-22T12:45:32.170Z,23.61
2023-05-22T12:50:33.729Z,23.80
2023-05-22T12:55:36.742Z,23.77
2023-05-22T13:00:42.941Z,23.67
2023-05-22T13:05:45.207Z,23.56
2023-05-22T13:10:46.708Z,23.55
2023-05-22T13:15:48.291Z,23.56
2023-05-22T13:20:49.985Z,23.40
2023-05-22T13:25:51.668Z,23.45
2023-05-22T13:30:54.231Z,23.59
2023-05-22T13:35:55.970Z,23.62
2023-05-22T13:40:58.112Z,23.62
2023-05-22T13:45:59.646Z,23.56
2023-05-22T13:51:01.203Z,23.51
2023-05-22T13:56:02.755Z,23.55
2023-05-22T14:01:04.348Z,23.48
2023-05-22T14:06:06.316Z,23.38
2023-05-22T14:11:07.953Z,23.50
2023-05-22T14:16:09.679Z,23.71
2023-05-22T14:21:11.264Z,23.82
2023-05-22T14:26:14.380Z,23.94
2023-05-22T14:31:17.195Z,24.19
2023-05-22T14:36:18.797Z,24.23
2023-05-22T14:41:21.361Z,24.14
2023-05-22T14:46:22.908Z,24.15
2023-05-22T14:51:24.686Z,24.03
2023-05-22T14:56:28.801Z,24.04
2023-05-22T15:01:30.741Z,23.97
2023-05-22T15:06:32.712Z,23.91
2023-05-22T15:11:34.541Z,23.84
2023-05-22T15:16:36.375Z,23.60
2023-05-22T15:21:38.010Z,23.47
2023-05-22T15:26:42.323Z,23.51
2023-05-22T15:31:43.941Z,23.57
2023-05-22T15:36:45.555Z,23.57
2023-05-22T15:41:58.253Z,23.51
2023-05-22T15:47:07.197Z,23.43
2023-05-22T15:52:08.788Z,23.34
2023-05-22T15:57:10.580Z,23.42
2023-05-22T16:02:12.178Z,23.61
2023-05-22T16:07:13.721Z,23.80
2023-05-22T16:12:15.570Z,23.93
2023-05-22T16:17:17.118Z,23.93
2023-05-22T16:22:19.465Z,23.95
2023-05-22T16:27:21.090Z,24.03
2023-05-22T16:32:24.325Z,24.09
2023-05-22T16:37:26.050Z,24.12
2023-05-22T16:42:27.778Z,23.97
2023-05-22T16:47:30.214Z,23.86
2023-05-22T16:52:31.791Z,23.86
2023-05-22T16:57:33.294Z,23.75
2023-05-22T17:02:35.536Z,23.65
2023-05-22T17:07:37.757Z,23.56
2023-05-22T17:12:39.393Z,23.46
2023-05-22T17:17:41.073Z,23.24
2023-05-22T17:22:42.706Z,22.85
2023-05-22T17:27:44.850Z,22.46
2023-05-22T17:32:46.679Z,22.16
2023-05-22T17:37:48.395Z,21.86
2023-05-22T17:42:50.011Z,21.54
2023-05-22T17:47:51.638Z,21.32
2023-05-22T17:52:53.448Z,21.11
2023-05-22T17:57:55.026Z,20.89
2023-05-22T18:02:56.625Z,20.68
2023-05-22T18:07:58.311Z,20.46
2023-05-22T18:12:59.851Z,20.20
2023-05-22T18:18:03.620Z,19.92
2023-05-22T18:23:05.770Z,19.62
2023-05-22T18:28:08.782Z,19.33
2023-05-22T18:33:12.083Z,19.05
2023-05-22T18:38:13.689Z,18.80
2023-05-22T18:43:15.429Z,18.56
2023-05-22T18:48:16.973Z,18.29
2023-05-22T18:53:18.822Z,18.03
2023-05-22T18:58:20.650Z,17.77
2023-05-22T19:03:22.293Z,17.52
2023-05-22T19:08:26.649Z,17.27
2023-05-22T19:13:29.293Z,17.03
2023-05-22T19:18:31.081Z,16.81
2023-05-22T19:23:33.086Z,16.62
2023-05-22T19:28:34.643Z,16.49
2023-05-22T19:33:36.554Z,16.32
2023-05-22T19:38:38.212Z,16.15
2023-05-22T19:43:39.809Z,15.99
2023-05-22T19:48:41.664Z,15.85
2023-05-22T19:53:44.403Z,15.67
2023-05-22T19:58:45.969Z,15.49
2023-05-22T20:03:47.789Z,15.34
2023-05-22T20:08:49.452Z,15.25
2023-05-22T20:13:54.546Z,15.14
2023-05-22T20:18:56.409Z,15.01
2023-05-22T20:23:58.043Z,14.90
2023-05-22T20:28:59.564Z,14.81
2023-05-22T20:34:02.022Z,14.69
2023-05-22T20:39:03.862Z,14.57
2023-05-22T20:44:06.451Z,14.45
2023-05-22T20:49:08.030Z,14.37
2023-05-22T20:54:09.543Z,14.28
2023-05-22T20:59:11.453Z,14.27
2023-05-22T21:04:13.146Z,14.24
2023-05-22T21:09:14.837Z,14.23
2023-05-22T21:14:17.411Z,14.15
2023-05-22T21:19:19.206Z,13.99
2023-05-22T21:24:21.888Z,13.86
2023-05-22T21:29:23.428Z,13.73
2023-05-22T21:34:24.994Z,13.59
2023-05-22T21:39:26.527Z,13.48
2023-05-22T21:44:28.065Z,13.34
2023-05-22T21:49:29.593Z,13.19
2023-05-22T21:54:31.116Z,13.03
2023-05-22T21:59:32.683Z,12.92
2023-05-22T22:04:34.248Z,12.86
2023-05-22T22:09:35.803Z,12.75
2023-05-22T22:14:37.416Z,12.68
2023-05-22T22:19:41.824Z,12.59
2023-05-22T22:24:43.346Z,12.50
2023-05-22T22:29:44.939Z,12.42
2023-05-22T22:34:47.025Z,12.34
2023-05-22T22:39:48.568Z,12.27
2023-05-22T22:44:50.401Z,12.19
2023-05-22T22:49:52.720Z,12.06
2023-05-22T22:54:54.260Z,11.99
2023-05-22T22:59:57.312Z,11.93
2023-05-22T23:04:59.048Z,11.85
2023-05-22T23:10:00.757Z,11.77
2023-05-22T23:15:03.049Z,11.69
2023-05-22T23:20:05.942Z,11.64
2023-05-22T23:25:07.992Z,11.59
2023-05-22T23:30:10.261Z,11.50
2023-05-22T23:35:11.860Z,11.40
2023-05-22T23:40:13.432Z,11.35
2023-05-22T23:45:14.971Z,11.29
2023-05-22T23:50:16.688Z,11.23
2023-05-22T23:55:18.337Z,11.16
